Time;durP1;ratioP1;P1;durP2;ratioP2;P2;SDS_P1;SDS_P2;PMS_P1;PMS_P2;Temp;Humidity;BMP_temperature;BMP_pressure;BME280_temperature;BME280_humidity;BME280_pressure;Samples;Min_cycle;Max_cycle;Signal;HPM_P1;HPM_P2
2020/12/27 00:02:14;;;;;;;23.08;11.15;;;;;;;8.65;57.73;101691.84;5030308;28;20102;-46
2020/12/27 00:04:40;;;;;;;24.05;13.60;;;;;;;9.04;57.43;101681.41;5029734;28;20132;-46
2020/12/27 00:07:07;;;;;;;29.90;25.92;;;;;;;9.01;57.46;101685.31;5030398;28;20535;-51
2020/12/27 00:09:33;;;;;;;37.60;27.80;;;;;;;8.69;58.08;101677.03;5029881;28;20824;-48
2020/12/27 00:11:59;;;;;;;38.85;26.00;;;;;;;8.50;58.62;101665.31;5030498;28;20041;-46
2020/12/27 00:14:24;;;;;;;27.38;20.27;;;;;;;8.66;58.30;101666.78;5030155;28;20029;-47
2020/12/27 00:16:50;;;;;;;33.47;21.33;;;;;;;8.87;57.70;101656.91;5030479;28;20095;-46
2020/12/27 00:19:15;;;;;;;26.90;19.02;;;;;;;8.93;57.90;101655.28;5030429;28;20045;-49
2020/12/27 00:21:41;;;;;;;29.50;20.48;;;;;;;9.00;57.29;101656.09;5030262;28;20065;-45
2020/12/27 00:24:07;;;;;;;28.05;20.27;;;;;;;9.11;57.30;101657.31;5030087;28;20080;-45
2020/12/27 00:26:32;;;;;;;39.88;21.80;;;;;;;9.11;57.07;101643.94;5030152;28;20044;-46
2020/12/27 00:28:58;;;;;;;35.10;22.70;;;;;;;9.11;57.14;101654.66;5030061;28;20068;-45
2020/12/27 00:31:23;;;;;;;36.88;21.00;;;;;;;9.15;57.53;101650.53;5029844;28;20801;-45
2020/12/27 00:33:49;;;;;;;34.72;22.52;;;;;;;9.15;57.35;101629.13;5029672;28;20038;-46
2020/12/27 00:36:19;;;;;;;33.90;21.25;;;;;;;9.02;58.08;101628.09;5029167;28;20452;-48
2020/12/27 00:38:44;;;;;;;28.75;19.88;;;;;;;9.06;58.08;101625.81;5029257;28;20502;-50
2020/12/27 00:41:10;;;;;;;34.72;19.58;;;;;;;9.03;57.44;101612.91;5029557;28;20037;-45
2020/12/27 00:43:35;;;;;;;24.60;17.17;;;;;;;9.15;57.88;101607.72;5029289;28;20368;-49
2020/12/27 00:46:00;;;;;;;30.30;19.65;;;;;;;9.16;57.74;101615.53;5028989;28;20393;-47
2020/12/27 00:48:26;;;;;;;22.13;16.77;;;;;;;9.37;56.96;101603.75;5029621;28;20061;-47
2020/12/27 00:50:51;;;;;;;23.00;13.38;;;;;;;9.22;56.68;101616.53;5035298;28;20076;-46
2020/12/27 00:53:17;;;;;;;18.40;12.02;;;;;;;9.17;57.24;101616.34;5022699;28;20161;-47
2020/12/27 00:55:45;;;;;;;27.85;22.73;;;;;;;9.13;57.29;101610.59;5028592;28;20106;-49
2020/12/27 00:58:10;;;;;;;26.85;23.73;;;;;;;8.99;57.92;101599.09;5029118;28;20215;-50
2020/12/27 01:00:36;;;;;;;33.58;28.17;;;;;;;9.30;57.30;101602.94;5029355;28;20050;-47
2020/12/27 01:03:01;;;;;;;35.00;23.90;;;;;;;9.39;57.22;101603.53;5028907;28;20842;-51
2020/12/27 01:05:27;;;;;;;27.40;22.58;;;;;;;9.28;57.20;101597.00;5015576;28;20073;-45
2020/12/27 01:07:52;;;;;;;17.98;16.05;;;;;;;9.34;57.20;101598.81;5015879;28;20025;-47
2020/12/27 01:10:18;;;;;;;20.70;14.57;;;;;;;9.51;57.08;101593.00;5016078;28;20077;-48
2020/12/27 01:12:45;;;;;;;30.30;12.82;;;;;;;9.54;56.52;101595.28;5016954;28;20079;-49
2020/12/27 01:15:11;;;;;;;12.40;9.00;;;;;;;9.48;56.90;101593.44;5019620;28;20030;-51
2020/12/27 01:17:37;;;;;;;21.00;18.75;;;;;;;9.40;57.32;101600.66;5019698;28;20057;-51
2020/12/27 01:20:04;;;;;;;50.13;34.60;;;;;;;9.31;57.29;101595.72;5024203;28;20080;-46
2020/12/27 01:22:33;;;;;;;48.40;37.33;;;;;;;9.18;57.86;101596.59;5028520;28;20478;-50
2020/12/27 01:24:59;;;;;;;57.83;40.08;;;;;;;9.15;58.45;101580.94;5029028;28;20041;-46
2020/12/27 01:27:25;;;;;;;52.40;43.47;;;;;;;9.16;58.25;101574.59;5028827;28;20581;-47
2020/12/27 01:29:50;;;;;;;47.67;37.88;;;;;;;9.15;58.48;101588.97;5028488;28;20057;-45
2020/12/27 01:32:16;;;;;;;51.58;33.85;;;;;;;9.39;57.75;101599.00;5028471;28;20041;-48
2020/12/27 01:34:41;;;;;;;44.85;32.95;;;;;;;9.19;58.25;101609.78;5028929;28;20069;-47
2020/12/27 01:37:07;;;;;;;35.20;29.08;;;;;;;9.23;58.44;101602.16;5027300;28;20041;-50
2020/12/27 01:39:32;;;;;;;26.52;23.77;;;;;;;9.12;58.87;101600.94;5027917;28;20031;-51
2020/12/27 01:41:58;;;;;;;28.42;25.33;;;;;;;9.23;58.62;101602.16;5028789;28;20464;-49
2020/12/27 01:44:23;;;;;;;28.85;20.75;;;;;;;9.19;58.80;101608.97;5028655;28;20360;-48
2020/12/27 01:46:48;;;;;;;35.35;28.05;;;;;;;9.30;58.17;101599.47;5028945;28;20458;-48
2020/12/27 01:49:14;;;;;;;34.33;27.58;;;;;;;9.42;58.52;101579.03;5028564;28;20033;-46
2020/12/27 01:51:40;;;;;;;33.70;24.25;;;;;;;9.40;58.42;101599.84;5028634;28;20479;-45
2020/12/27 01:54:06;;;;;;;28.33;24.33;;;;;;;9.43;57.88;101589.53;5028522;28;20063;-47
2020/12/27 01:56:42;;;;;;;30.20;25.88;;;;;;;9.19;58.58;101607.09;5028204;28;20840;-48
2020/12/27 01:59:17;;;;;;;35.25;28.98;;;;;;;9.12;59.15;101598.25;5028253;28;20038;-51
2020/12/27 02:01:44;;;;;;;40.22;28.55;;;;;;;9.03;59.28;101600.34;5027419;28;20049;-48
2020/12/27 02:04:11;;;;;;;29.00;23.95;;;;;;;8.91;60.05;101602.00;5028235;28;20124;-47
2020/12/27 02:06:39;;;;;;;33.45;22.52;;;;;;;8.85;59.77;101597.44;5028290;28;20037;-49
2020/12/27 02:09:06;;;;;;;30.88;23.13;;;;;;;8.85;59.74;101581.41;5028209;28;20735;-46
2020/12/27 02:11:31;;;;;;;21.67;18.30;;;;;;;8.96;59.86;101575.44;5028343;28;20041;-47
2020/12/27 02:13:57;;;;;;;25.13;19.08;;;;;;;9.10;59.62;101584.28;5028283;28;20033;-48
2020/12/27 02:16:24;;;;;;;32.67;22.08;;;;;;;9.25;58.84;101582.16;5028141;28;20053;-46
2020/12/27 02:18:51;;;;;;;21.42;18.17;;;;;;;9.32;58.78;101575.97;5028103;28;20037;-46
2020/12/27 02:21:17;;;;;;;22.52;19.67;;;;;;;9.13;59.34;101565.09;5027919;28;20041;-46
2020/12/27 02:23:43;;;;;;;21.75;15.88;;;;;;;8.99;59.64;101572.34;5027224;28;20073;-47
2020/12/27 02:26:09;;;;;;;22.30;15.65;;;;;;;9.13;59.81;101559.75;5027747;28;20069;-46
2020/12/27 02:28:34;;;;;;;30.40;21.83;;;;;;;9.08;59.66;101538.16;5022339;28;20743;-47
2020/12/27 02:31:00;;;;;;;29.70;19.10;;;;;;;9.05;59.50;101527.91;5010615;28;20045;-47
2020/12/27 02:33:26;;;;;;;21.02;17.80;;;;;;;8.87;60.12;101536.56;5027419;28;20395;-48
2020/12/27 02:35:51;;;;;;;18.38;15.18;;;;;;;8.79;60.44;101534.13;5027712;28;20061;-46
2020/12/27 02:38:17;;;;;;;27.55;17.45;;;;;;;8.75;60.52;101539.06;5027428;28;20041;-47
2020/12/27 02:40:43;;;;;;;23.27;14.80;;;;;;;8.74;60.69;101536.59;5027337;28;20033;-45
2020/12/27 02:43:18;;;;;;;22.33;18.60;;;;;;;8.85;59.86;101527.91;5026992;28;20060;-44
2020/12/27 02:45:45;;;;;;;20.85;15.48;;;;;;;8.58;61.11;101532.50;5026092;28;20445;-45
2020/12/27 02:48:10;;;;;;;18.60;15.43;;;;;;;8.55;61.05;101528.38;5026599;28;20501;-49
2020/12/27 02:50:36;;;;;;;19.20;14.95;;;;;;;8.78;60.58;101521.75;5027709;28;20547;-45
2020/12/27 02:53:03;;;;;;;23.55;17.42;;;;;;;8.58;61.17;101517.25;5027282;28;20044;-46
2020/12/27 02:55:29;;;;;;;21.15;16.05;;;;;;;8.80;60.47;101515.19;5027161;28;20046;-44
2020/12/27 02:57:54;;;;;;;35.35;19.80;;;;;;;8.62;60.78;101515.81;5027535;28;20033;-45
2020/12/27 03:00:20;;;;;;;21.05;18.35;;;;;;;8.69;60.52;101510.47;5027640;28;20044;-46
2020/12/27 03:02:45;;;;;;;24.58;16.10;;;;;;;8.79;60.47;101502.84;5027191;28;20100;-45
2020/12/27 03:05:11;;;;;;;16.13;14.50;;;;;;;8.86;60.39;101492.94;5027859;28;20059;-47
2020/12/27 03:07:36;;;;;;;21.75;18.48;;;;;;;8.94;59.74;101491.91;5020488;28;20037;-46
2020/12/27 03:10:03;;;;;;;22.10;16.80;;;;;;;8.81;60.11;101495.44;5027249;28;20120;-47
2020/12/27 03:12:28;;;;;;;23.80;14.90;;;;;;;8.51;60.95;101495.88;5027626;28;20037;-46
2020/12/27 03:14:54;;;;;;;16.95;14.98;;;;;;;8.61;60.44;101500.00;5027206;28;20036;-46
2020/12/27 03:17:19;;;;;;;21.45;15.02;;;;;;;8.40;61.26;101499.16;5027675;28;20041;-45
2020/12/27 03:19:45;;;;;;;24.70;17.05;;;;;;;8.35;61.70;101484.78;5027305;28;20030;-46
2020/12/27 03:22:10;;;;;;;20.05;13.85;;;;;;;8.63;60.75;101481.91;5027155;28;20086;-45
2020/12/27 03:24:35;;;;;;;15.18;12.32;;;;;;;8.63;60.92;101480.03;5027755;28;20029;-46
2020/12/27 03:27:01;;;;;;;12.95;10.57;;;;;;;8.62;60.87;101480.25;5027147;28;20037;-49
2020/12/27 03:29:26;;;;;;;14.63;13.10;;;;;;;8.74;60.99;101467.88;5027083;28;20029;-45
2020/12/27 03:31:52;;;;;;;24.75;19.88;;;;;;;8.79;60.78;101467.25;5027179;28;20097;-47
2020/12/27 03:34:19;;;;;;;26.38;20.85;;;;;;;8.77;60.60;101467.47;5027006;28;20072;-47
2020/12/27 03:36:45;;;;;;;24.75;17.58;;;;;;;8.66;60.69;101470.78;5027408;28;20044;-49
2020/12/27 03:39:11;;;;;;;18.58;15.57;;;;;;;8.35;61.69;101476.75;5027700;28;20030;-48
2020/12/27 03:41:36;;;;;;;25.40;14.73;;;;;;;8.39;61.40;101465.44;5030708;28;20049;-48
2020/12/27 03:44:02;;;;;;;27.63;16.58;;;;;;;8.39;61.44;101464.63;5030893;28;20486;-50
2020/12/27 03:46:28;;;;;;;23.85;16.40;;;;;;;8.36;62.13;101459.69;5030879;28;20124;-48
2020/12/27 03:48:53;;;;;;;19.63;12.93;;;;;;;8.70;60.97;101451.44;5029937;28;20033;-45
2020/12/27 03:51:19;;;;;;;22.30;12.43;;;;;;;8.49;61.11;101435.66;5030683;28;20049;-49
2020/12/27 03:53:44;;;;;;;20.10;13.55;;;;;;;8.37;61.81;101446.13;5030723;28;20439;-46
2020/12/27 03:56:10;;;;;;;16.20;11.38;;;;;;;8.35;62.33;101452.72;5030280;28;20439;-47
2020/12/27 03:58:35;;;;;;;12.65;9.75;;;;;;;8.43;61.93;101437.31;5029750;28;20391;-46
2020/12/27 04:01:01;;;;;;;11.60;9.45;;;;;;;8.61;61.88;101433.19;5030778;28;20041;-46
2020/12/27 04:03:26;;;;;;;17.02;8.27;;;;;;;8.60;61.34;101423.50;5030467;28;20033;-46
2020/12/27 04:05:51;;;;;;;9.65;7.63;;;;;;;8.54;61.65;101424.31;5028943;28;20065;-46
2020/12/27 04:08:17;;;;;;;7.95;6.32;;;;;;;8.66;61.80;101423.50;5030239;28;20095;-49
2020/12/27 04:10:42;;;;;;;10.52;6.63;;;;;;;8.55;62.27;101426.78;5030106;28;20099;-48
2020/12/27 04:13:08;;;;;;;13.55;7.53;;;;;;;8.63;61.58;101421.22;5030466;28;20033;-47
2020/12/27 04:15:34;;;;;;;6.28;5.68;;;;;;;8.61;61.88;101420.63;5029908;28;20407;-48
2020/12/27 04:17:59;;;;;;;19.85;10.20;;;;;;;8.82;61.27;101426.75;5030319;28;20535;-47
2020/12/27 04:20:25;;;;;;;21.58;9.88;;;;;;;8.75;61.90;101417.91;5030032;28;20037;-47
2020/12/27 04:22:51;;;;;;;14.70;8.88;;;;;;;8.52;62.01;101411.19;5030220;28;20573;-48
2020/12/27 04:25:17;;;;;;;15.18;8.32;;;;;;;8.54;62.20;101405.59;5029936;28;20052;-46
2020/12/27 04:27:43;;;;;;;10.80;7.75;;;;;;;8.57;62.05;101400.66;5029930;28;20116;-48
2020/12/27 04:30:09;;;;;;;17.58;7.22;;;;;;;8.57;62.48;101406.00;5029539;28;20128;-50
2020/12/27 04:32:34;;;;;;;6.15;5.50;;;;;;;8.48;62.58;101394.72;5022073;28;20034;-47
2020/12/27 04:35:00;;;;;;;9.57;7.28;;;;;;;8.49;62.99;101379.53;5012572;28;20057;-47
2020/12/27 04:37:26;;;;;;;10.05;7.22;;;;;;;8.64;61.95;101372.09;5027591;28;20116;-48
2020/12/27 04:39:51;;;;;;;6.88;5.18;;;;;;;8.74;61.63;101376.97;5022965;28;20445;-47
2020/12/27 04:42:17;;;;;;;13.15;7.65;;;;;;;8.76;62.37;101382.13;5021147;28;20463;-46
2020/12/27 04:44:43;;;;;;;11.50;8.55;;;;;;;8.76;61.63;101371.41;5029836;28;20045;-45
2020/12/27 04:47:09;;;;;;;15.60;8.93;;;;;;;8.81;61.52;101359.03;5022056;28;20037;-46
2020/12/27 04:49:35;;;;;;;19.30;8.43;;;;;;;8.68;62.06;101359.13;5029529;28;20064;-45
2020/12/27 04:52:02;;;;;;;15.40;8.32;;;;;;;8.71;62.26;101350.66;5028931;28;20061;-47
2020/12/27 04:54:28;;;;;;;10.40;6.35;;;;;;;8.67;61.97;101350.25;5029516;28;20052;-46
2020/12/27 04:56:55;;;;;;;6.72;5.32;;;;;;;8.46;62.98;101326.50;5028679;28;20041;-46
2020/12/27 04:59:20;;;;;;;7.47;5.47;;;;;;;8.61;62.27;101324.38;5029528;28;20137;-45
2020/12/27 05:01:46;;;;;;;11.50;4.28;;;;;;;8.73;62.06;101327.22;5029622;28;20144;-46
2020/12/27 05:04:18;;;;;;;6.63;3.70;;;;;;;8.62;62.36;101328.69;5029165;28;20107;-45
2020/12/27 05:06:44;;;;;;;;;;;;;;;8.61;62.26;101327.06;5028673;28;20064;-44
2020/12/27 05:09:10;;;;;;;8.13;5.18;;;;;;;8.56;62.29;101320.72;5029248;28;19939;-46
2020/12/27 05:11:35;;;;;;;5.85;5.05;;;;;;;8.57;62.54;101317.00;5029038;28;20476;-45
2020/12/27 05:14:03;;;;;;;11.13;5.88;;;;;;;8.66;62.26;101316.56;5029169;28;20494;-47
2020/12/27 05:16:30;;;;;;;30.85;20.73;;;;;;;8.51;62.28;101321.34;5029105;28;20041;-45
2020/12/27 05:18:58;;;;;;;13.93;8.45;;;;;;;8.42;62.80;101299.38;5029101;28;20036;-45
2020/12/27 05:21:25;;;;;;;17.75;10.95;;;;;;;8.19;63.68;101305.16;5028912;28;20124;-51
2020/12/27 05:23:51;;;;;;;6.63;5.45;;;;;;;8.41;63.23;101302.22;5029099;28;20033;-45
2020/12/27 05:26:18;;;;;;;8.32;4.55;;;;;;;8.41;62.61;101291.53;5028713;28;20084;-50
2020/12/27 05:28:44;;;;;;;9.13;6.72;;;;;;;8.29;62.82;101294.03;5028884;28;20063;-45
2020/12/27 05:31:11;;;;;;;14.70;8.45;;;;;;;8.46;62.20;101297.09;5016799;28;20071;-50
2020/12/27 05:33:43;;;;;;;12.77;8.93;;;;;;;8.30;62.94;101301.84;5013360;28;20030;-43
2020/12/27 05:36:11;;;;;;;9.88;8.20;;;;;;;8.27;63.01;101309.44;5022821;28;20141;-47
2020/12/27 05:38:37;;;;;;;7.47;6.07;;;;;;;8.21;63.43;101302.28;5022489;28;20123;-44
2020/12/27 05:41:03;;;;;;;10.18;7.60;;;;;;;8.25;62.78;101288.28;5020062;28;20120;-48
2020/12/27 05:43:28;;;;;;;8.95;6.50;;;;;;;8.17;63.05;101290.38;5016342;28;20037;-44
2020/12/27 05:45:56;;;;;;;8.15;4.47;;;;;;;8.29;63.07;101278.84;5019495;28;20712;-49
2020/12/27 05:48:21;;;;;;;10.18;4.15;;;;;;;8.21;62.85;101286.25;5023083;28;20618;-47
2020/12/27 05:50:50;;;;;;;9.38;4.55;;;;;;;8.06;63.43;101289.97;5019823;28;20045;-50
2020/12/27 05:53:20;;;;;;;7.10;2.85;;;;;;;8.45;62.12;101280.25;5022500;28;20079;-45
2020/12/27 05:55:51;;;;;;;11.77;5.22;;;;;;;8.48;62.31;101289.69;5018680;28;20064;-48
2020/12/27 05:58:26;;;;;;;10.13;5.40;;;;;;;8.62;62.25;101299.28;5022747;28;20033;-47
2020/12/27 06:00:58;;;;;;;4.80;2.88;;;;;;;8.49;61.85;101294.00;5014038;28;20279;-50
2020/12/27 06:03:26;;;;;;;10.73;6.20;;;;;;;8.47;62.42;101293.41;5022520;28;20025;-46
2020/12/27 06:05:55;;;;;;;5.85;3.78;;;;;;;8.33;62.92;101304.09;5015938;28;20048;-46
2020/12/27 06:08:29;;;;;;;5.82;2.42;;;;;;;8.57;62.30;101307.09;5022811;28;20034;-45
2020/12/27 06:10:59;;;;;;;7.93;2.42;;;;;;;8.63;62.28;101308.94;5016942;28;20053;-45
2020/12/27 06:14:05;;;;;;;7.93;3.25;;;;;;;8.77;61.24;101314.25;5022481;28;20747;-46
2020/12/27 06:16:45;;;;;;;4.20;2.10;;;;;;;8.74;61.46;101306.66;5021522;28;20076;-49
2020/12/27 06:19:38;;;;;;;3.60;2.05;;;;;;;8.75;61.23;101303.75;5019235;28;20025;-45
2020/12/27 06:22:09;;;;;;;15.50;11.82;;;;;;;8.56;61.91;101293.97;5021621;28;20033;-48
2020/12/27 06:24:36;;;;;;;8.73;4.65;;;;;;;8.49;62.15;101294.81;5022458;28;20102;-48
2020/12/27 06:27:02;;;;;;;7.40;4.15;;;;;;;8.62;61.89;101303.81;5021545;28;20041;-47
2020/12/27 06:29:30;;;;;;;14.40;4.15;;;;;;;8.62;61.47;101295.78;5022095;28;20037;-45
2020/12/27 06:31:57;;;;;;;9.55;5.90;;;;;;;8.60;61.45;101306.69;5020649;28;20063;-46
2020/12/27 06:34:23;;;;;;;4.95;3.67;;;;;;;8.62;61.89;101299.28;5022439;28;20077;-46
2020/12/27 06:36:51;;;;;;;2.53;1.65;;;;;;;8.74;61.80;101304.78;5021114;28;20137;-46
2020/12/27 06:39:30;;;;;;;6.18;3.65;;;;;;;8.72;61.04;101298.84;5022095;28;20141;-50
2020/12/27 06:42:05;;;;;;;16.27;4.25;;;;;;;8.61;61.87;101291.50;5019961;28;20136;-46
2020/12/27 06:44:44;;;;;;;3.75;2.13;;;;;;;8.60;61.80;101289.84;5022180;28;20179;-47
2020/12/27 06:47:11;;;;;;;2.67;1.63;;;;;;;8.74;61.43;101280.72;5022513;28;20041;-49
2020/12/27 06:49:37;;;;;;;9.68;5.45;;;;;;;8.68;61.61;101273.56;5021094;28;20037;-47
2020/12/27 06:52:19;;;;;;;4.07;2.75;;;;;;;8.79;61.34;101278.22;5012263;28;20054;-48
2020/12/27 06:54:53;;;;;;;5.22;2.60;;;;;;;8.88;60.88;101268.91;5020411;28;20037;-48
2020/12/27 06:57:43;;;;;;;5.75;2.42;;;;;;;8.86;60.93;101265.63;5021157;28;20076;-52
2020/12/27 07:00:31;;;;;;;8.25;3.03;;;;;;;8.78;61.50;101262.41;5016971;28;20075;-49
2020/12/27 07:03:16;;;;;;;4.20;3.40;;;;;;;8.78;61.34;101259.72;5015819;28;20088;-49
2020/12/27 07:05:41;;;;;;;6.00;3.28;;;;;;;8.73;60.99;101251.50;5024524;28;20041;-47
2020/12/27 07:08:13;;;;;;;7.20;4.25;;;;;;;8.71;61.47;101259.75;5026402;28;20492;-48
2020/12/27 07:10:44;;;;;;;3.97;2.97;;;;;;;8.77;61.39;101252.75;5027279;28;20056;-47
2020/12/27 07:13:10;;;;;;;;;;;;;;;8.70;61.54;101253.59;5028041;28;20484;-50
2020/12/27 07:15:44;;;;;;;8.52;4.28;;;;;;;8.77;60.98;101253.56;5029366;28;19925;-47
2020/12/27 07:18:10;;;;;;;6.03;5.25;;;;;;;8.61;61.77;101265.56;5030988;28;20132;-47
2020/12/27 07:20:43;;;;;;;8.40;5.82;;;;;;;8.70;61.29;101264.28;5030855;28;20146;-47
2020/12/27 07:23:15;;;;;;;7.93;5.82;;;;;;;8.70;60.92;101264.28;5026953;28;20073;-49
2020/12/27 07:25:42;;;;;;;14.25;8.02;;;;;;;8.58;61.72;101266.00;5029122;28;20041;-47
2020/12/27 07:28:08;;;;;;;6.97;5.57;;;;;;;8.41;62.00;101268.28;5028278;28;20028;-45
2020/12/27 07:30:35;;;;;;;10.90;5.97;;;;;;;8.70;61.10;101274.16;5028599;28;20049;-47
2020/12/27 07:33:07;;;;;;;9.15;6.50;;;;;;;8.66;61.28;101262.25;5027706;28;20037;-49
2020/12/27 07:35:35;;;;;;;8.50;7.63;;;;;;;8.62;61.38;101253.84;5026552;28;20064;-47
2020/12/27 07:38:01;;;;;;;8.35;5.30;;;;;;;8.61;61.55;101252.22;5024715;28;20498;-45
2020/12/27 07:40:35;;;;;;;5.95;4.50;;;;;;;8.49;61.93;101252.06;5027854;28;20041;-48
2020/12/27 07:43:02;;;;;;;7.15;4.90;;;;;;;8.47;62.63;101246.09;5030487;28;20068;-48
2020/12/27 07:45:28;;;;;;;9.25;8.20;;;;;;;8.55;61.62;101250.38;5027980;28;20857;-48
2020/12/27 07:47:53;;;;;;;11.10;7.43;;;;;;;8.53;61.89;101249.78;5029736;28;20121;-48
2020/12/27 07:50:20;;;;;;;13.68;8.73;;;;;;;8.60;62.26;101237.19;5028214;28;20442;-45
2020/12/27 07:52:47;;;;;;;13.20;8.70;;;;;;;8.73;61.94;101233.66;5029538;28;20037;-48
2020/12/27 07:55:39;;;;;;;6.25;5.65;;;;;;;8.78;61.98;101227.63;5029294;28;20040;-50
2020/12/27 07:58:06;;;;;;;10.07;7.03;;;;;;;8.68;61.88;101228.13;5024131;28;20529;-46
2020/12/27 08:00:33;;;;;;;8.38;6.18;;;;;;;8.80;61.87;101220.22;5027809;28;20057;-46
2020/12/27 08:03:03;;;;;;;11.98;7.30;;;;;;;8.94;61.28;101221.78;5028575;28;20468;-45
2020/12/27 08:05:28;;;;;;;9.88;4.90;;;;;;;8.77;62.01;101210.78;5024902;28;20045;-46
2020/12/27 08:08:02;;;;;;;6.78;5.15;;;;;;;8.63;62.83;101202.00;5026546;28;20368;-47
2020/12/27 08:10:27;;;;;;;9.38;6.15;;;;;;;8.71;62.77;101206.28;5025297;28;20038;-47
2020/12/27 08:12:55;;;;;;;8.63;5.30;;;;;;;8.85;62.09;101207.84;5029949;28;20056;-46
2020/12/27 08:15:21;;;;;;;7.57;4.70;;;;;;;8.95;61.97;101210.03;5030072;28;20475;-45
2020/12/27 08:18:04;;;;;;;6.72;4.55;;;;;;;9.05;61.55;101207.69;5027137;28;20036;-48
2020/12/27 08:20:32;;;;;;;8.27;5.78;;;;;;;9.27;62.84;101199.28;5023213;28;20076;-68
2020/12/27 08:23:07;;;;;;;15.60;5.20;;;;;;;9.22;61.40;101197.28;5018439;28;20396;-69
2020/12/27 08:25:40;;;;;;;9.55;5.25;;;;;;;9.27;61.56;101199.28;5023846;28;20147;-69
2020/12/27 08:28:11;;;;;;;5.43;4.68;;;;;;;9.30;61.06;101193.50;5028986;28;20033;-70
2020/12/27 08:30:37;;;;;;;9.52;6.57;;;;;;;9.26;61.17;101203.81;5025914;28;20068;-69
2020/12/27 08:33:02;;;;;;;15.15;11.02;;;;;;;9.26;61.25;101186.97;5027988;28;20073;-71
2020/12/27 08:35:27;;;;;;;20.75;16.48;;;;;;;9.22;61.29;101191.94;5024991;28;20111;-68
2020/12/27 08:38:02;;;;;;;12.73;9.70;;;;;;;9.30;61.67;101192.69;5019527;28;20036;-68
2020/12/27 08:40:31;;;;;;;23.17;10.65;;;;;;;9.20;61.53;101188.66;5019987;28;20041;-68
2020/12/27 08:43:03;;;;;;;14.48;10.80;;;;;;;9.28;61.69;101190.22;5029270;28;20128;-67
2020/12/27 08:45:36;;;;;;;13.07;10.43;;;;;;;9.25;61.33;101190.66;5029608;28;20065;-70
2020/12/27 08:48:24;;;;;;;19.55;12.20;;;;;;;9.34;61.80;101183.97;5026272;28;20480;-72
2020/12/27 08:50:55;;;;;;;16.95;13.30;;;;;;;9.16;63.04;101186.63;5026174;28;20189;-70
2020/12/27 08:53:21;;;;;;;17.17;12.82;;;;;;;9.26;62.69;101171.72;5027436;28;20037;-69
2020/12/27 08:55:46;;;;;;;16.73;13.30;;;;;;;9.39;62.51;101173.44;5027373;28;20631;-69
2020/12/27 08:58:12;;;;;;;16.63;10.23;;;;;;;9.42;62.19;101166.84;5028326;28;20361;-67
2020/12/27 09:00:39;;;;;;;16.17;10.75;;;;;;;9.53;62.16;101162.59;5026541;28;20037;-68
2020/12/27 09:03:05;;;;;;;12.70;7.97;;;;;;;9.45;62.97;101175.25;5025920;28;20373;-69
2020/12/27 09:05:33;;;;;;;18.70;9.57;;;;;;;9.41;62.96;101159.84;5026163;28;20033;-68
2020/12/27 09:07:59;;;;;;;31.88;27.60;;;;;;;9.56;62.59;101154.94;5028455;28;20033;-67
2020/12/27 09:10:27;;;;;;;25.73;16.60;;;;;;;9.63;62.78;101158.38;5028738;28;20033;-69
2020/12/27 09:12:58;;;;;;;20.13;11.93;;;;;;;9.58;63.17;101152.06;5022556;28;20137;-67
2020/12/27 09:15:29;;;;;;;19.15;10.73;;;;;;;9.70;62.55;101154.81;5028029;28;20045;-67
2020/12/27 09:17:58;;;;;;;21.77;13.80;;;;;;;9.75;62.90;101150.41;5022941;28;20065;-69
2020/12/27 09:20:24;;;;;;;20.10;12.20;;;;;;;9.76;63.24;101146.69;5031145;28;20072;-68
2020/12/27 09:22:51;;;;;;;25.42;11.48;;;;;;;9.70;63.24;101152.13;5028698;28;20033;-68
2020/12/27 09:25:18;;;;;;;22.45;19.33;;;;;;;9.78;63.66;101154.50;5028587;28;20116;-68
2020/12/27 09:27:45;;;;;;;53.08;22.80;;;;;;;9.88;63.16;101157.47;5028887;28;20033;-69
2020/12/27 09:30:17;;;;;;;65.15;46.17;;;;;;;10.00;62.88;101150.31;5028703;28;20051;-67
2020/12/27 09:32:43;;;;;;;59.35;50.78;;;;;;;10.06;63.45;101145.91;5018278;28;20037;-67
2020/12/27 09:35:08;;;;;;;42.08;34.35;;;;;;;10.09;63.36;101155.38;5029185;28;20050;-70
2020/12/27 09:37:34;;;;;;;44.60;33.42;;;;;;;10.11;63.46;101146.06;5026622;28;20123;-69
2020/12/27 09:40:01;;;;;;;40.35;29.63;;;;;;;10.21;63.58;101142.84;5028599;28;20021;-67
2020/12/27 09:42:32;;;;;;;29.17;18.30;;;;;;;10.35;62.89;101130.91;5028396;28;20045;-67
2020/12/27 09:45:14;;;;;;;29.42;21.30;;;;;;;10.53;63.63;101123.88;5027551;28;20403;-68
2020/12/27 09:47:49;;;;;;;24.15;17.75;;;;;;;10.73;62.73;101119.00;5028687;28;20045;-66
2020/12/27 09:50:14;;;;;;;32.97;20.33;;;;;;;10.74;62.75;101120.63;5021729;28;20115;-67
2020/12/27 09:52:47;;;;;;;37.05;21.75;;;;;;;10.84;63.79;101127.31;5027680;28;20103;-66
2020/12/27 09:55:13;;;;;;;39.60;23.90;;;;;;;10.94;63.82;101125.69;5027185;28;20107;-69
2020/12/27 09:57:41;;;;;;;37.75;32.72;;;;;;;11.09;63.34;101124.41;5027911;28;20751;-69
2020/12/27 10:00:07;;;;;;;37.35;25.42;;;;;;;11.27;63.15;101116.25;5028002;28;20748;-67
2020/12/27 10:02:33;;;;;;;45.60;30.73;;;;;;;11.45;63.13;101109.09;5028229;28;20045;-68
2020/12/27 10:04:59;;;;;;;35.20;20.35;;;;;;;11.64;61.89;101105.22;5027257;28;20809;-66
2020/12/27 10:07:24;;;;;;;17.25;10.20;;;;;;;11.93;60.33;101101.78;5028099;28;20045;-67
2020/12/27 10:09:51;;;;;;;12.85;7.90;;;;;;;12.24;57.90;101095.91;5025253;28;20460;-67
2020/12/27 10:12:18;;;;;;;14.27;7.18;;;;;;;12.34;57.65;101091.75;5021467;28;20037;-69
2020/12/27 10:14:43;;;;;;;8.50;4.75;;;;;;;12.29;55.43;101082.56;5020031;28;20045;-69
2020/12/27 10:17:10;;;;;;;28.65;20.38;;;;;;;12.46;55.63;101079.88;5028391;28;20042;-65
2020/12/27 10:19:36;;;;;;;31.58;21.60;;;;;;;12.63;55.69;101071.00;5028161;28;20060;-65
2020/12/27 10:22:02;;;;;;;37.72;26.85;;;;;;;12.78;54.19;101071.25;5034846;28;20040;-66
2020/12/27 10:24:31;;;;;;;24.33;14.52;;;;;;;13.05;53.09;101073.25;5025331;28;20060;-66
2020/12/27 10:26:57;;;;;;;19.67;14.27;;;;;;;13.32;53.27;101072.56;5021180;28;20041;-64
2020/12/27 10:29:23;;;;;;;25.80;15.88;;;;;;;13.11;54.32;101066.84;5027822;28;20052;-66
2020/12/27 10:31:53;;;;;;;10.93;7.88;;;;;;;13.75;52.74;101062.84;5026790;28;20431;-65
2020/12/27 10:34:19;;;;;;;9.77;4.47;;;;;;;13.80;50.03;101055.63;5027423;28;20539;-68
2020/12/27 10:36:46;;;;;;;4.22;2.78;;;;;;;14.05;50.75;101046.16;5027201;28;20569;-64
2020/12/27 10:39:12;;;;;;;7.53;2.08;;;;;;;13.57;51.36;101050.53;5021304;28;20523;-58
2020/12/27 10:41:39;;;;;;;2.60;1.42;;;;;;;13.98;50.40;101040.97;5015922;28;20065;-69
2020/12/27 10:44:05;;;;;;;5.75;3.05;;;;;;;14.17;51.29;101029.84;5027048;28;20037;-61
2020/12/27 10:46:31;;;;;;;13.75;12.45;;;;;;;14.45;50.05;101030.63;5026678;28;20595;-63
2020/12/27 10:48:56;;;;;;;11.40;7.22;;;;;;;14.53;47.81;101020.16;5027598;28;20048;-64
2020/12/27 10:51:21;;;;;;;2.28;1.88;;;;;;;14.70;46.91;101009.22;5026966;28;20044;-64
2020/12/27 10:53:47;;;;;;;4.10;2.65;;;;;;;14.82;47.77;101000.13;5029765;28;20047;-63
2020/12/27 10:56:12;;;;;;;7.03;3.72;;;;;;;14.99;46.57;100989.13;5029058;28;20041;-63
2020/12/27 10:58:38;;;;;;;5.60;3.15;;;;;;;15.45;44.52;100976.63;5029728;28;20118;-65
2020/12/27 11:01:03;;;;;;;3.50;2.90;;;;;;;15.59;44.31;100970.72;5030520;28;20041;-66
2020/12/27 11:03:30;;;;;;;5.93;2.58;;;;;;;15.91;44.17;100957.00;5029720;28;20037;-63
2020/12/27 11:05:56;;;;;;;3.97;1.92;;;;;;;15.89;43.31;100953.75;5028174;28;20064;-65
2020/12/27 11:08:21;;;;;;;4.85;2.67;;;;;;;16.04;43.05;100951.06;5031386;28;20467;-62
2020/12/27 11:10:46;;;;;;;6.70;3.35;;;;;;;16.38;42.96;100950.47;5031235;28;20142;-62
2020/12/27 11:13:12;;;;;;;8.23;2.67;;;;;;;16.48;44.12;100938.84;5030844;28;20048;-61
2020/12/27 11:15:38;;;;;;;6.15;4.32;;;;;;;16.83;42.22;100939.81;5030955;28;20789;-62
2020/12/27 11:18:04;;;;;;;12.57;8.25;;;;;;;17.01;42.31;100936.53;5031133;28;20042;-59
2020/12/27 11:20:30;;;;;;;11.73;6.70;;;;;;;17.03;42.54;100925.41;5031116;28;20041;-58
2020/12/27 11:22:56;;;;;;;5.50;3.20;;;;;;;17.17;42.00;100914.78;5030902;28;20091;-58
2020/12/27 11:25:22;;;;;;;4.95;3.05;;;;;;;17.41;41.34;100906.78;5030721;28;20037;-57